Route Details

Aircraft Information
Group: Boeing 737 Only
Types: B738
Route Data
Distance: 386nm
Duration: 1h 10m
Origin METAR: MMMY 160040Z 06006KT 7SM FEW030 SCT070 BKN200 24/23 A2979 RMK 8/463
Dest. METAR: MMMX 160146Z 14006KT 6SM BKN015CB OVC080 16/13 A3028 NOSIG RMK 8/96/ HZY RAE30 OCNL DROPS
Freight Data
(for Aug 16, 2022)
Load Factor:
33%
Manifested Cargo: 17,424lbs
Financial History
Total Freight: 61,933lbs
Average Load: 0lbs/flt
Fuel Used: 13,036lbs
Avg. Fuel Used: 0lbs/flt
Fuel Expense: $8,213
Avg. Fuel Expense: $0
Avg. Fuel Cost: $0/lbs
Total Gross Income: $193,231
Pilot Pay: $528
Total Expenses: $41,667
Total Revenue: $142,571
Average Revenue: $0

Capitol Logistics 782




MMMY
General Mariano Escobedo International Airport
Monterrey, MX
MMMX
Benito Juárez International Airport
Mexico City, MX

Activity Log

Date Flight Route Aircraft Duration
07/10/2022 CPX782 KERG1A KERGA UT132 DARAN DARA2A B738 1h 20m
07/01/2022 CPX3127 KERG1B KERGA UT132 DARAN DARA2A B738 1h 33m